Terminal Aerodrome Forecast
Issued by NWS

Home | Current Version | Previous Version | Text Only | Print | Product List | Glossary On
Versions: 1 2 3 4 5 6 7 8 9 10 11 12 13 14 15 16 17 18 19 20 21
000
FTUS46 KMFR 191700 RRA
TAFOTH
TAF
KOTH 191746Z 1918/2018 19008G15KT P6SM OVC023
     FM192100 25012KT P6SM VCSH SCT015 BKN025 OVC040
     FM200200 23008KT P6SM SCT015
     FM200500 18005KT P6SM SKC
     FM200900 15003KT 5SM BR BKN010=

USA.gov is the U.S. government's official web portal to all federal, state and local government web resources and services.